Terminal Aerodrome Forecast
Issued by NWS Caribou, ME

Home | Current Version | Previous Version | Text Only | Print | Product List | Glossary On
Versions: 1 2 3 4 5 6 7 8 9 10 11 12 13 14 15 16 17 18 19 20 21 22
984
FTUS41 KCAR 060238 AAA
TAFCAR
TAF AMD
KCAR 060238Z 0603/0624 VRB03KT P6SM VCSH SCT020 OVC040
      TEMPO 0603/0606 6SM -SN
     FM060600 32004KT P6SM OVC015
     FM061500 32006KT P6SM BKN020
     FM061800 32006KT P6SM BKN035=

USA.gov is the U.S. government's official web portal to all federal, state and local government web resources and services.